Terminal Aerodrome Forecast
Issued by NWS

Home | Current Version | Previous Version | Text Only | Print | Product List | Glossary On
Versions: 1 2 3 4 5 6 7 8 9 10 11 12 13 14 15 16 17 18 19 20 21
602
FTPA31 PHFO 050539
TAFHTO
TAF
PHTO 050539Z 0506/0606 27005KT P6SM -SHRA SCT025 BKN035 OVC050
      TEMPO 0506/0510 3SM SHRA BR BKN025
     FM052000 VRB06KT P6SM VCSH SCT025 BKN035=

USA.gov is the U.S. government's official web portal to all federal, state and local government web resources and services.